Time;durP1;ratioP1;P1;durP2;ratioP2;P2;SDS_P1;SDS_P2;PMS_P1;PMS_P2;Temp;Humidity;BMP_temperature;BMP_pressure;BME280_temperature;BME280_humidity;BME280_pressure;Samples;Min_cycle;Max_cycle;Signal;HPM_P1;HPM_P2
2022/04/29 00:02:08;;;;;;;18.85;14.85;;;11.80;99.90;;;;;;5056023;28;20033;-52
2022/04/29 00:04:35;;;;;;;17.77;15.32;;;11.70;99.90;;;;;;5056685;28;20032;-52
2022/04/29 00:07:02;;;;;;;17.23;14.50;;;11.80;99.90;;;;;;5045975;28;20040;-51
2022/04/29 00:09:28;;;;;;;16.88;14.95;;;11.90;99.90;;;;;;5055695;28;20029;-51
2022/04/29 00:11:54;;;;;;;19.20;14.05;;;11.80;99.90;;;;;;5055853;28;20041;-52
2022/04/29 00:14:21;;;;;;;19.13;15.07;;;12.10;99.90;;;;;;5053364;28;20061;-52
2022/04/29 00:16:47;;;;;;;20.50;14.77;;;11.80;99.90;;;;;;5051989;28;20029;-52
2022/04/29 00:19:13;;;;;;;18.17;15.50;;;11.80;99.90;;;;;;5056030;28;20070;-51
2022/04/29 00:21:41;;;;;;;19.75;16.00;;;11.70;99.90;;;;;;5055447;28;20035;-51
2022/04/29 00:24:09;;;;;;;19.52;15.05;;;11.60;99.90;;;;;;5054197;28;20049;-52
2022/04/29 00:26:37;;;;;;;20.23;14.80;;;11.60;99.90;;;;;;5052195;28;20396;-52
2022/04/29 00:29:03;;;;;;;19.10;15.75;;;11.70;99.90;;;;;;5049994;28;20119;-52
2022/04/29 00:31:30;;;;;;;17.88;15.07;;;11.70;99.90;;;;;;5035551;28;20053;-52
2022/04/29 00:33:56;;;;;;;21.23;15.70;;;11.70;99.90;;;;;;5052992;28;20028;-52
2022/04/29 00:36:22;;;;;;;18.05;15.48;;;11.60;99.90;;;;;;5057152;28;20040;-52
2022/04/29 00:38:48;;;;;;;18.45;16.33;;;11.60;99.90;;;;;;5054876;28;20033;-52
2022/04/29 00:41:18;;;;;;;17.40;15.52;;;11.60;99.90;;;;;;5055350;28;20039;-51
2022/04/29 00:43:44;;;;;;;17.13;15.32;;;11.50;99.90;;;;;;5052800;28;20110;-51
2022/04/29 00:46:10;;;;;;;19.02;15.50;;;11.40;99.90;;;;;;5052160;28;20472;-52
2022/04/29 00:48:36;;;;;;;18.73;15.93;;;11.50;99.90;;;;;;5053399;28;20074;-52
2022/04/29 00:51:03;;;;;;;20.25;15.95;;;11.60;99.90;;;;;;5052716;28;20060;-52
2022/04/29 00:53:30;;;;;;;21.33;15.95;;;11.60;99.90;;;;;;5052678;28;20047;-51
2022/04/29 00:55:57;;;;;;;19.23;16.27;;;11.60;99.90;;;;;;5055643;28;20076;-52
2022/04/29 00:58:34;;;;;;;22.40;16.55;;;11.60;99.90;;;;;;5057034;28;20480;-51
2022/04/29 01:01:02;;;;;;;18.88;15.85;;;11.70;99.90;;;;;;5052529;28;20033;-52
2022/04/29 01:03:28;;;;;;;23.65;16.77;;;11.90;99.90;;;;;;5056677;28;20388;-51
2022/04/29 01:05:55;;;;;;;20.30;16.98;;;12.00;99.90;;;;;;5054621;28;20025;-52
2022/04/29 01:08:20;;;;;;;18.13;16.08;;;12.00;99.90;;;;;;5055152;28;20614;-52
2022/04/29 01:10:47;;;;;;;21.58;15.95;;;12.10;99.90;;;;;;5058949;28;20107;-52
2022/04/29 01:13:14;;;;;;;24.67;15.80;;;12.10;99.90;;;;;;5055023;28;20025;-52
2022/04/29 01:15:40;;;;;;;19.75;16.00;;;12.10;99.90;;;;;;5057768;28;20108;-52
2022/04/29 01:18:08;;;;;;;21.05;17.08;;;12.10;99.90;;;;;;5056317;28;20050;-52
2022/04/29 01:20:36;;;;;;;19.40;16.85;;;11.90;99.90;;;;;;5059899;28;20028;-51
2022/04/29 01:23:09;;;;;;;19.63;16.92;;;11.90;99.90;;;;;;5019096;28;20111;-51
2022/04/29 01:25:35;;;;;;;19.83;16.10;;;11.90;99.90;;;;;;5057966;28;20033;-51
2022/04/29 01:28:01;;;;;;;19.58;16.63;;;11.90;99.90;;;;;;5000028;28;20086;-51
2022/04/29 01:30:26;;;;;;;21.40;17.17;;;11.80;99.90;;;;;;5053435;28;20025;-51
2022/04/29 01:32:55;;;;;;;22.17;16.02;;;11.80;99.90;;;;;;5055741;28;20195;-51
2022/04/29 01:35:21;;;;;;;20.75;16.48;;;11.90;99.90;;;;;;5057514;28;20029;-51
2022/04/29 01:37:47;;;;;;;22.70;17.25;;;11.90;99.90;;;;;;5057371;28;20035;-51
2022/04/29 01:40:14;;;;;;;20.75;16.83;;;11.90;99.90;;;;;;5055711;28;20025;-52
2022/04/29 01:42:41;;;;;;;20.13;16.45;;;11.80;99.90;;;;;;5056420;28;20039;-52
2022/04/29 01:45:08;;;;;;;19.52;17.45;;;11.50;99.90;;;;;;5054389;28;20063;-51
2022/04/29 01:47:34;;;;;;;19.95;16.30;;;11.40;99.90;;;;;;5037480;28;20033;-51
2022/04/29 01:50:00;;;;;;;24.65;16.48;;;;;;;;;;5055716;28;20059;-51
2022/04/29 01:52:26;;;;;;;20.30;16.88;;;;;;;;;;5057219;28;20029;-51
2022/04/29 01:54:52;;;;;;;23.25;16.63;;;;;;;;;;5054974;28;20037;-51
2022/04/29 01:57:19;;;;;;;19.13;16.77;;;;;;;;;;5056211;28;20029;-52
2022/04/29 01:59:45;;;;;;;22.05;17.52;;;;;;;;;;5059113;28;20035;-51
2022/04/29 02:02:11;;;;;;;21.60;17.35;;;;;;;;;;5055296;28;20025;-51
2022/04/29 02:04:37;;;;;;;22.02;17.80;;;;;;;;;;5056610;28;20037;-51
2022/04/29 02:07:04;;;;;;;33.65;18.55;;;;;;;;;;5057761;28;20025;-51
2022/04/29 02:09:30;;;;;;;25.02;18.83;;;;;;;;;;5049575;28;20064;-51
2022/04/29 02:12:06;;;;;;;26.58;18.33;;;;;;;;;;5056098;28;20036;-51
2022/04/29 02:14:35;;;;;;;22.20;17.38;;;;;;;;;;5058305;28;20020;-52
2022/04/29 02:17:02;;;;;;;22.90;17.60;;;;;;;;;;5053982;28;20035;-52
2022/04/29 02:19:28;;;;;;;20.48;16.75;;;;;;;;;;5055489;28;20495;-52
2022/04/29 02:21:55;;;;;;;20.30;17.40;;;;;;;;;;5055508;28;20503;-51
2022/04/29 02:24:21;;;;;;;22.63;16.88;;;;;;;;;;5056499;28;20036;-51
2022/04/29 02:26:47;;;;;;;19.30;16.63;;;;;;;;;;5053225;28;20068;-52
2022/04/29 02:29:13;;;;;;;23.23;17.25;;;;;;;;;;5054531;28;20028;-51
2022/04/29 02:31:40;;;;;;;23.13;17.42;;;;;;;;;;5034591;28;20037;-52
2022/04/29 02:34:06;;;;;;;24.45;18.17;;;;;;;;;;5056606;28;20067;-51
2022/04/29 02:36:32;;;;;;;22.38;17.00;;;;;;;;;;5055064;28;20123;-52
2022/04/29 02:38:59;;;;;;;20.08;16.60;;;;;;;;;;5055072;28;20492;-51
2022/04/29 02:41:25;;;;;;;21.70;16.80;;;;;;;;;;5054099;28;20037;-51
2022/04/29 02:43:51;;;;;;;24.98;18.23;;;;;;;;;;5054337;28;20037;-51
2022/04/29 02:46:17;;;;;;;22.70;17.83;;;;;;;;;;5052490;28;20064;-51
2022/04/29 02:48:46;;;;;;;19.80;16.27;;;;;;;;;;5041298;28;20040;-51
2022/04/29 02:51:13;;;;;;;23.92;16.38;;;;;;;;;;5054425;28;20396;-51
2022/04/29 02:53:40;;;;;;;19.27;16.27;;;;;;;;;;5054014;28;20075;-51
2022/04/29 02:56:06;;;;;;;21.77;17.13;;;;;;;;;;5053646;28;20029;-51
2022/04/29 02:58:32;;;;;;;20.25;16.92;;;;;;;;;;5056960;28;20020;-51
2022/04/29 03:00:58;;;;;;;23.70;17.30;;;;;;;;;;5054363;28;20025;-51
2022/04/29 03:03:24;;;;;;;21.23;17.10;;;;;;;;;;5056587;28;20025;-51
2022/04/29 03:05:50;;;;;;;23.65;17.13;;;;;;;;;;5057262;28;20032;-52
2022/04/29 03:08:16;;;;;;;20.23;18.05;;;;;;;;;;5055803;28;20111;-52
2022/04/29 03:10:42;;;;;;;20.83;16.30;;;;;;;;;;5056633;28;20028;-52
2022/04/29 03:13:09;;;;;;;20.60;17.02;;;;;;;;;;5055485;28;20025;-51
2022/04/29 03:15:35;;;;;;;18.27;15.02;;;;;;;;;;5054114;28;20024;-52
2022/04/29 03:20:47;;;;;;;21.08;16.08;;;;;;;;;;5053583;28;20511;-53
2022/04/29 03:23:13;;;;;;;20.65;16.25;;;;;;;;;;5051860;28;20033;-52
2022/04/29 03:25:42;;;;;;;23.25;16.00;;;;;;;;;;5054773;28;20460;-51
2022/04/29 03:28:08;;;;;;;20.35;16.10;;;;;;;;;;5054679;28;20033;-52
2022/04/29 03:30:35;;;;;;;18.23;15.57;;;;;;;;;;5054574;28;20479;-52
2022/04/29 03:33:02;;;;;;;19.73;16.38;;;;;;;;;;5045975;28;20045;-51
2022/04/29 03:35:28;;;;;;;24.25;15.07;;;;;;;;;;5059958;28;20373;-51
2022/04/29 03:37:55;;;;;;;27.92;15.82;;;;;;;;;;5052959;28;20021;-53
2022/04/29 03:40:24;;;;;;;20.63;15.30;;;;;;;;;;5056267;28;20037;-51
2022/04/29 03:42:55;;;;;;;17.33;13.68;;;11.90;99.90;;;;;;5053790;28;20097;-51
2022/04/29 03:45:22;;;;;;;23.00;15.43;;;12.00;99.90;;;;;;5033711;28;20045;-51
2022/04/29 03:47:48;;;;;;;22.48;15.10;;;11.90;99.90;;;;;;5054220;28;20039;-51
2022/04/29 03:50:14;;;;;;;25.20;15.15;;;11.90;99.90;;;;;;5034712;28;20037;-51
2022/04/29 03:52:51;;;;;;;19.20;15.40;;;12.00;99.90;;;;;;5052359;28;20401;-52
2022/04/29 03:55:26;;;;;;;20.13;14.18;;;12.00;99.90;;;;;;5057106;28;20033;-52
2022/04/29 03:57:53;;;;;;;18.08;14.35;;;;;;;;;;5056523;28;20461;-52
2022/04/29 04:00:20;;;;;;;16.98;14.25;;;;;;;;;;5052117;28;20086;-51
2022/04/29 04:02:46;;;;;;;22.05;14.63;;;;;;;;;;5052938;28;20036;-52
2022/04/29 04:05:12;;;;;;;16.90;14.00;;;;;;;;;;5054572;28;20029;-52
2022/04/29 04:07:39;;;;;;;34.13;15.57;;;;;;;;;;5054818;28;20032;-52
2022/04/29 04:10:06;;;;;;;16.70;13.30;;;;;;;;;;5051491;28;20040;-52
2022/04/29 04:12:51;;;;;;;17.92;13.57;;;;;;;;;;5028526;28;20532;-51
2022/04/29 04:15:18;;;;;;;24.27;15.38;;;;;;;;;;5029431;28;20029;-52
2022/04/29 04:17:45;;;;;;;16.20;13.07;;;;;;;;;;5025684;28;20049;-52
2022/04/29 04:20:12;;;;;;;20.20;13.02;;;;;;;;;;5028376;28;20026;-52
2022/04/29 04:22:38;;;;;;;18.23;14.60;;;11.70;99.90;;;;;;5028773;28;20041;-52
2022/04/29 04:25:11;;;;;;;19.08;13.95;;;11.80;99.90;;;;;;5028959;28;20435;-52
2022/04/29 04:27:38;;;;;;;17.25;13.50;;;11.70;99.90;;;;;;5012960;28;20090;-52
2022/04/29 04:30:04;;;;;;;18.67;13.65;;;11.60;99.90;;;;;;5027379;28;20223;-53
2022/04/29 04:32:34;;;;;;;18.25;14.00;;;11.50;99.90;;;;;;4996393;28;20047;-52
2022/04/29 04:35:01;;;;;;;20.17;14.75;;;11.70;99.90;;;;;;5004660;28;20046;-52
2022/04/29 04:37:28;;;;;;;17.67;14.68;;;11.90;99.90;;;;;;5029197;28;20104;-51
2022/04/29 04:39:58;;;;;;;17.45;15.25;;;12.00;99.90;;;;;;5028068;28;20045;-53
2022/04/29 04:42:24;;;;;;;20.45;15.50;;;12.10;99.90;;;;;;5031680;28;20028;-52
2022/04/29 04:44:51;;;;;;;19.05;15.88;;;12.10;99.90;;;;;;5054913;28;20037;-51
2022/04/29 04:47:17;;;;;;;17.80;15.30;;;12.10;99.90;;;;;;5057100;28;20031;-51
2022/04/29 04:49:43;;;;;;;21.92;16.38;;;12.10;99.90;;;;;;5054235;28;20029;-51
2022/04/29 04:52:10;;;;;;;24.13;16.50;;;;;;;;;;5052380;28;20429;-52
2022/04/29 04:54:36;;;;;;;18.33;15.73;;;12.50;99.90;;;;;;5053843;28;20021;-51
2022/04/29 04:57:03;;;;;;;17.67;15.35;;;12.40;99.90;;;;;;5051485;28;20503;-51
2022/04/29 04:59:29;;;;;;;18.65;16.48;;;12.40;99.90;;;;;;5001868;28;20086;-51
2022/04/29 05:01:54;;;;;;;19.35;15.88;;;12.20;99.90;;;;;;5039393;28;20037;-51
2022/04/29 05:04:21;;;;;;;17.63;15.75;;;12.20;99.90;;;;;;5057522;28;20037;-51
2022/04/29 05:06:47;;;;;;;23.52;16.38;;;12.00;99.90;;;;;;5060685;28;20056;-51
2022/04/29 05:09:13;;;;;;;18.85;15.93;;;;;;;;;;5065326;28;20071;-52
2022/04/29 05:11:39;;;;;;;21.30;15.07;;;;;;;;;;5028056;28;20098;-51
2022/04/29 05:14:06;;;;;;;17.92;13.05;;;;;;;;;;5052368;28;20404;-51
2022/04/29 05:16:32;;;;;;;16.48;13.98;;;;;;;;;;5052658;28;20044;-51
2022/04/29 05:18:58;;;;;;;19.23;16.00;;;;;;;;;;5047758;28;20025;-49
2022/04/29 05:21:24;;;;;;;20.92;16.88;;;;;;;;;;5061867;28;20365;-49
2022/04/29 05:23:50;;;;;;;18.73;15.43;;;;;;;;;;5023859;28;20056;-51
2022/04/29 05:26:16;;;;;;;18.63;16.13;;;;;;;;;;5051093;28;20476;-53
2022/04/29 05:28:43;;;;;;;16.48;14.45;;;;;;;;;;5051902;28;20346;-49
2022/04/29 05:31:09;;;;;;;19.17;15.38;;;;;;;;;;5052411;28;20060;-51
2022/04/29 05:33:37;;;;;;;20.25;15.43;;;;;;;;;;5051685;28;20440;-50
2022/04/29 05:36:04;;;;;;;24.95;17.23;;;;;;;;;;5057633;28;20504;-48
2022/04/29 05:44:01;;;;;;;19.48;15.20;;;;;;;;;;5056520;28;20043;-53
2022/04/29 05:46:27;;;;;;;22.90;15.40;;;13.40;99.90;;;;;;5061276;28;20079;-50
2022/04/29 05:48:53;;;;;;;18.25;14.27;;;13.40;99.90;;;;;;5010612;28;20429;-50
2022/04/29 05:51:18;;;;;;;19.17;15.98;;;13.50;99.90;;;;;;5062172;28;20033;-53
2022/04/29 05:53:44;;;;;;;20.88;16.10;;;13.50;99.90;;;;;;5062162;28;20049;-50
2022/04/29 05:56:10;;;;;;;17.67;15.35;;;13.40;99.90;;;;;;5060275;28;20040;-50
2022/04/29 05:58:36;;;;;;;19.20;15.63;;;13.50;99.90;;;;;;5067061;28;20020;-51
2022/04/29 06:01:02;;;;;;;13.68;10.13;;;13.70;99.90;;;;;;5013775;28;20037;-52
2022/04/29 06:03:28;;;;;;;16.77;14.25;;;13.60;99.90;;;;;;5058433;28;20390;-52
2022/04/29 06:05:54;;;;;;;17.05;14.30;;;13.60;99.90;;;;;;5060696;28;20033;-49
2022/04/29 06:08:20;;;;;;;18.60;13.65;;;13.60;99.90;;;;;;5063119;28;20471;-51
2022/04/29 06:10:46;;;;;;;17.77;14.82;;;;;;;;;;5060661;28;20029;-49
2022/04/29 06:13:12;;;;;;;20.38;16.40;;;;;;;;;;5056542;28;20059;-47
2022/04/29 06:15:38;;;;;;;17.83;14.27;;;;;;;;;;5067101;28;20028;-53
2022/04/29 06:18:04;;;;;;;20.52;15.02;;;;;;;;;;5064013;28;20048;-51
2022/04/29 06:20:30;;;;;;;17.52;14.65;;;;;;;;;;5063567;28;20496;-54
2022/04/29 06:22:57;;;;;;;17.58;15.02;;;;;;;;;;5066003;28;20051;-50
2022/04/29 06:25:24;;;;;;;18.40;14.93;;;;;;;;;;5069435;28;20037;-54
2022/04/29 06:27:50;;;;;;;20.25;15.10;;;14.30;99.90;;;;;;5059769;28;20067;-53
2022/04/29 06:30:16;;;;;;;21.00;14.88;;;14.40;99.90;;;;;;5066418;28;20059;-48
2022/04/29 06:32:41;;;;;;;19.23;15.18;;;14.40;99.90;;;;;;5062211;28;20465;-52
2022/04/29 06:35:08;;;;;;;19.10;14.80;;;14.30;99.90;;;;;;5061519;28;20044;-49
2022/04/29 06:37:35;;;;;;;17.80;15.48;;;14.30;99.90;;;;;;5022311;28;20488;-51
2022/04/29 06:40:01;;;;;;;21.05;16.65;;;14.30;99.90;;;;;;5061563;28;20029;-48
2022/04/29 06:42:26;;;;;;;17.88;15.15;;;14.60;99.90;;;;;;5055130;28;20039;-55
2022/04/29 06:44:52;;;;;;;18.40;14.60;;;14.60;99.90;;;;;;5064281;28;20040;-51
2022/04/29 06:47:18;;;;;;;19.30;15.68;;;;;;;;;;5056682;28;20431;-47
2022/04/29 06:49:44;;;;;;;20.33;16.58;;;15.40;99.90;;;;;;5056872;28;20079;-47
2022/04/29 06:52:10;;;;;;;19.40;14.85;;;15.20;99.90;;;;;;5063855;28;20637;-52
2022/04/29 06:54:36;;;;;;;20.50;16.13;;;15.20;99.90;;;;;;5059107;28;20391;-54
2022/04/29 06:57:02;;;;;;;18.45;15.18;;;15.20;99.90;;;;;;5055170;28;20036;-50
2022/04/29 06:59:28;;;;;;;21.63;16.50;;;15.20;99.90;;;;;;5034975;28;20033;-48
2022/04/29 07:01:54;;;;;;;19.95;15.85;;;15.30;99.90;;;;;;5059860;28;20035;-52
2022/04/29 07:04:20;;;;;;;19.20;15.15;;;15.40;99.90;;;;;;5057509;28;20052;-49
2022/04/29 07:06:46;;;;;;;19.73;14.82;;;15.30;99.90;;;;;;5049051;28;20033;-51
2022/04/29 07:09:11;;;;;;;25.42;14.90;;;15.50;99.90;;;;;;5057587;28;20037;-47
2022/04/29 07:11:37;;;;;;;17.33;14.63;;;15.60;99.90;;;;;;5047038;28;20044;-48
2022/04/29 07:14:05;;;;;;;19.48;13.77;;;15.80;99.90;;;;;;5064099;28;20111;-49
2022/04/29 07:16:31;;;;;;;18.02;13.93;;;15.70;99.90;;;;;;5062331;28;20482;-52
2022/04/29 07:19:00;;;;;;;20.60;14.32;;;15.90;99.90;;;;;;5065854;28;20075;-50
2022/04/29 07:21:26;;;;;;;18.25;15.05;;;16.00;99.90;;;;;;5066336;28;20025;-50
2022/04/29 07:23:51;;;;;;;17.52;14.35;;;16.10;99.90;;;;;;5060779;28;20035;-50
2022/04/29 07:26:17;;;;;;;15.30;13.00;;;16.20;99.90;;;;;;5060019;28;20388;-51
2022/04/29 07:28:43;;;;;;;14.77;12.25;;;16.30;99.90;;;;;;5061211;28;20025;-51
2022/04/29 07:31:09;;;;;;;14.48;12.88;;;16.30;99.90;;;;;;5061214;28;20035;-51
2022/04/29 07:33:34;;;;;;;14.02;12.48;;;16.50;99.90;;;;;;5058416;28;20021;-51
2022/04/29 07:41:47;;;;;;;13.60;10.65;;;17.00;99.90;;;;;;5054577;28;20087;-50
2022/04/29 07:44:13;;;;;;;10.88;8.35;;;;;;;;;;5059719;28;20127;-50
2022/04/29 07:46:43;;;;;;;11.23;9.43;;;;;;;;;;5055199;28;20033;-53
2022/04/29 07:49:10;;;;;;;12.35;10.20;;;;;;;;;;5053789;28;20025;-55
2022/04/29 07:51:37;;;;;;;15.93;11.02;;;;;;;;;;5058555;28;20037;-48
2022/04/29 07:54:06;;;;;;;7.93;6.60;;;17.50;99.90;;;;;;5061438;28;20040;-51
2022/04/29 07:56:32;;;;;;;14.07;10.52;;;17.30;99.90;;;;;;5056129;28;20477;-52
2022/04/29 07:58:58;;;;;;;10.90;8.13;;;17.50;99.90;;;;;;5057469;28;20053;-50
2022/04/29 08:01:27;;;;;;;11.60;9.18;;;17.60;99.90;;;;;;5058380;28;20060;-51
2022/04/29 08:03:55;;;;;;;13.70;9.40;;;17.50;99.90;;;;;;5016983;28;20102;-53
2022/04/29 08:06:21;;;;;;;10.13;8.45;;;;;;;;;;5017645;28;20619;-52
2022/04/29 08:08:47;;;;;;;10.75;8.75;;;18.50;99.90;;;;;;5056199;28;20033;-49
2022/04/29 08:11:14;;;;;;;21.13;11.18;;;18.60;99.90;;;;;;5017050;28;20515;-51
2022/04/29 08:13:41;;;;;;;9.55;7.38;;;18.90;99.90;;;;;;5057694;28;20043;-48
2022/04/29 08:16:07;;;;;;;10.55;8.35;;;18.50;99.90;;;;;;5058740;28;20075;-48
2022/04/29 08:18:33;;;;;;;13.18;10.43;;;18.20;99.90;;;;;;5064762;28;20079;-47
2022/04/29 08:20:59;;;;;;;10.57;8.88;;;18.70;99.90;;;;;;5064568;28;20032;-50
2022/04/29 08:23:25;;;;;;;14.63;10.73;;;18.80;99.90;;;;;;5064574;28;20028;-52
2022/04/29 08:25:50;;;;;;;15.25;12.25;;;19.00;99.90;;;;;;5065743;28;20024;-50
2022/04/29 08:28:16;;;;;;;11.30;9.60;;;19.20;99.90;;;;;;5065591;28;20061;-51
2022/04/29 08:30:42;;;;;;;12.27;9.85;;;19.00;99.90;;;;;;5070921;28;20059;-47
2022/04/29 08:33:12;;;;;;;16.02;12.40;;;18.50;99.90;;;;;;5047502;28;20033;-47
2022/04/29 08:35:39;;;;;;;9.68;8.15;;;18.70;99.90;;;;;;5066172;28;20024;-53
2022/04/29 08:38:10;;;;;;;16.23;9.43;;;18.60;99.90;;;;;;5061745;28;20033;-48
2022/04/29 08:40:36;;;;;;;11.52;8.70;;;;;;;;;;5046057;28;20037;-49
2022/04/29 08:43:04;;;;;;;13.57;8.68;;;19.30;99.90;;;;;;5059014;28;20074;-49
2022/04/29 08:45:30;;;;;;;11.30;9.27;;;19.50;99.90;;;;;;5067364;28;20052;-50
2022/04/29 08:47:56;;;;;;;12.30;9.75;;;19.30;99.90;;;;;;5062980;28;20156;-48
2022/04/29 08:50:22;;;;;;;10.43;9.30;;;19.20;99.90;;;;;;5062012;28;20036;-47
2022/04/29 08:52:49;;;;;;;15.43;10.10;;;19.20;99.90;;;;;;5064104;28;20605;-51
2022/04/29 09:00:45;;;;;;;10.38;9.32;;;;;;;;;;5044725;28;20086;-44
2022/04/29 09:03:13;;;;;;;11.85;9.35;;;19.50;99.90;;;;;;5054119;28;20029;-41
2022/04/29 09:05:40;;;;;;;17.48;11.25;;;19.90;99.90;;;;;;5065075;28;20169;-42
2022/04/29 09:08:06;;;;;;;22.13;12.77;;;;;;;;;;5060609;28;20397;-44
2022/04/29 09:10:35;;;;;;;10.40;9.30;;;;;;;;;;5050831;28;20036;-45
2022/04/29 09:13:12;;;;;;;12.82;10.05;;;;;;;;;;5054544;28;20095;-49
2022/04/29 09:15:49;;;;;;;10.80;9.25;;;21.30;99.90;;;;;;5063088;28;20361;-48
2022/04/29 09:18:27;;;;;;;10.98;9.65;;;;;;;;;;5049393;28;20037;-49
2022/04/29 09:20:53;;;;;;;8.45;7.43;;;21.70;99.90;;;;;;5053473;28;20048;-46
2022/04/29 09:23:28;;;;;;;12.52;9.02;;;21.50;99.90;;;;;;5061747;28;20480;-50
2022/04/29 09:25:57;;;;;;;9.48;7.22;;;21.30;99.90;;;;;;5058128;28;20021;-45
2022/04/29 09:28:24;;;;;;;10.57;7.03;;;21.20;99.90;;;;;;5039323;28;20523;-51
2022/04/29 09:30:54;;;;;;;9.57;7.05;;;;;;;;;;5055933;28;20122;-49
2022/04/29 09:33:21;;;;;;;8.48;6.88;;;21.20;99.90;;;;;;5055386;28;20028;-49
2022/04/29 09:35:49;;;;;;;7.47;5.93;;;21.20;99.90;;;;;;5055872;28;20396;-48
2022/04/29 09:41:00;;;;;;;5.90;5.15;;;21.10;99.90;;;;;;5056284;28;20036;-49
2022/04/29 09:43:38;;;;;;;6.90;5.47;;;21.40;99.90;;;;;;5053556;28;20076;-51
2022/04/29 09:46:18;;;;;;;6.40;5.50;;;21.60;99.90;;;;;;5065477;28;20040;-45
2022/04/29 09:48:50;;;;;;;8.43;6.25;;;21.70;99.90;;;;;;5054086;28;20033;-48
2022/04/29 09:51:52;;;;;;;8.30;5.90;;;22.00;99.90;;;;;;5055701;28;20033;-54
2022/04/29 09:54:25;;;;;;;6.82;5.93;;;22.60;99.90;;;;;;5052640;28;20045;-53
2022/04/29 09:57:10;;;;;;;7.03;5.80;;;22.50;99.90;;;;;;5040549;28;20064;-54
2022/04/29 09:59:41;;;;;;;6.68;5.72;;;22.00;99.90;;;;;;4996744;28;20076;-53
2022/04/29 10:02:08;;;;;;;10.95;5.70;;;21.90;99.90;;;;;;5043816;28;20103;-52
2022/04/29 10:04:40;;;;;;;5.82;5.00;;;22.10;99.90;;;;;;5043612;28;20124;-54
2022/04/29 10:07:08;;;;;;;13.65;6.70;;;21.60;99.90;;;;;;5030065;28;20037;-48
2022/04/29 10:09:40;;;;;;;7.50;5.55;;;21.20;99.90;;;;;;5010180;28;20033;-47
2022/04/29 10:12:15;;;;;;;;;;;21.10;99.90;;;;;;5013378;28;20679;-47
2022/04/29 10:14:46;;;;;;;9.48;6.03;;;21.60;99.90;;;;;;5028186;28;19909;-46
2022/04/29 10:23:09;;;;;;;6.57;4.88;;;21.70;99.90;;;;;;5028989;28;20409;-49
2022/04/29 10:25:40;;;;;;;7.97;5.70;;;22.20;99.90;;;;;;5029221;28;20072;-48
2022/04/29 10:28:07;;;;;;;6.75;4.93;;;;;;;;;;5042490;28;20036;-48
2022/04/29 10:30:35;;;;;;;5.45;4.88;;;23.30;99.90;;;;;;5050055;28;20064;-48
2022/04/29 10:33:03;;;;;;;8.70;6.10;;;23.00;99.90;;;;;;5029711;28;20041;-48
2022/04/29 10:35:43;;;;;;;6.43;5.57;;;23.10;99.90;;;;;;5049733;28;20507;-49
2022/04/29 10:38:13;;;;;;;17.75;7.03;;;;;;;;;;5047332;28;20040;-48
2022/04/29 10:40:39;;;;;;;7.38;5.85;;;23.20;99.90;;;;;;5032168;28;20443;-48
2022/04/29 10:43:09;;;;;;;11.70;6.43;;;22.80;99.90;;;;;;5048635;28;20458;-48
2022/04/29 10:45:56;;;;;;;8.05;6.55;;;22.00;99.90;;;;;;5049850;28;20095;-48
2022/04/29 10:48:35;;;;;;;7.45;6.03;;;21.50;99.90;;;;;;5050454;28;20456;-48
2022/04/29 10:51:14;;;;;;;59.92;17.50;;;21.30;99.90;;;;;;5028721;28;20190;-47
2022/04/29 10:53:44;;;;;;;18.63;8.35;;;20.90;99.90;;;;;;5029370;28;20042;-49
2022/04/29 10:56:30;;;;;;;13.00;6.78;;;20.10;99.90;;;;;;5029948;28;20030;-48
2022/04/29 10:59:11;;;;;;;18.48;8.45;;;20.00;99.90;;;;;;5030131;28;20033;-47
2022/04/29 11:01:38;;;;;;;14.32;8.00;;;19.90;99.90;;;;;;5034668;28;20040;-47
2022/04/29 11:04:14;;;;;;;22.48;8.07;;;19.90;99.90;;;;;;5033117;28;20065;-50
2022/04/29 11:06:46;;;;;;;10.38;6.78;;;20.00;99.90;;;;;;5045642;28;20041;-48
2022/04/29 11:09:27;;;;;;;;;;;19.80;99.90;;;;;;5042180;28;20033;-48
2022/04/29 11:11:54;;;;;;;13.70;6.20;;;19.90;99.90;;;;;;5030567;28;19905;-48
2022/04/29 11:14:20;;;;;;;7.10;5.13;;;19.50;99.90;;;;;;5030579;28;20029;-50
2022/04/29 11:17:08;;;;;;;11.18;5.72;;;19.40;99.90;;;;;;5014835;28;20478;-48
2022/04/29 11:19:36;;;;;;;8.32;6.30;;;19.50;99.90;;;;;;5027798;28;20040;-48
2022/04/29 11:24:50;;;;;;;6.68;5.15;;;19.90;99.90;;;;;;5028470;28;20596;-48
2022/04/29 11:27:34;;;;;;;6.88;4.90;;;19.90;99.90;;;;;;5048360;28;20541;-48
2022/04/29 11:30:03;;;;;;;8.10;5.13;;;20.00;99.90;;;;;;5049180;28;20086;-50
2022/04/29 11:32:30;;;;;;;5.55;4.45;;;20.10;99.90;;;;;;5041442;28;20048;-50
2022/04/29 11:35:00;;;;;;;14.95;5.93;;;20.20;99.90;;;;;;5051135;28;20194;-47
2022/04/29 11:37:28;;;;;;;6.63;5.10;;;20.10;99.90;;;;;;5045921;28;20041;-50
2022/04/29 11:40:07;;;;;;;7.35;5.63;;;19.90;99.90;;;;;;5045143;28;20037;-50
2022/04/29 11:42:33;;;;;;;9.32;4.80;;;20.00;99.90;;;;;;5041023;28;20032;-49
2022/04/29 11:45:05;;;;;;;10.57;4.93;;;20.00;99.90;;;;;;5034550;28;20052;-47
2022/04/29 11:47:32;;;;;;;11.88;5.20;;;20.10;99.90;;;;;;5055900;28;20028;-50
2022/04/29 11:49:59;;;;;;;4.85;4.00;;;20.20;99.90;;;;;;5053638;28;20040;-49
2022/04/29 11:52:25;;;;;;;6.15;4.07;;;20.60;99.90;;;;;;5056780;28;20393;-50
2022/04/29 11:55:07;;;;;;;6.53;4.05;;;20.70;99.90;;;;;;5055767;28;20052;-49
2022/04/29 11:57:55;;;;;;;6.25;4.22;;;20.90;99.90;;;;;;5032675;28;20059;-48
2022/04/29 12:00:26;;;;;;;6.88;4.10;;;21.00;99.90;;;;;;5052097;28;20037;-47
2022/04/29 12:02:53;;;;;;;6.73;5.47;;;20.80;99.90;;;;;;5051695;28;20025;-49
2022/04/29 12:05:23;;;;;;;8.43;4.95;;;20.90;99.90;;;;;;5052511;28;20381;-47
2022/04/29 12:07:49;;;;;;;5.32;4.07;;;20.90;99.90;;;;;;5063393;28;20408;-50
2022/04/29 12:10:19;;;;;;;7.10;4.10;;;20.90;99.90;;;;;;5062015;28;20036;-48
2022/04/29 12:12:47;;;;;;;5.88;3.75;;;20.80;99.90;;;;;;5047139;28;20047;-48
2022/04/29 12:15:17;;;;;;;4.45;3.80;;;21.10;99.90;;;;;;5065546;28;20044;-48
2022/04/29 12:17:42;;;;;;;6.97;4.80;;;21.00;99.90;;;;;;5056701;28;20346;-48
2022/04/29 12:20:19;;;;;;;6.82;4.50;;;20.90;99.70;;;;;;5049461;28;20062;-50
2022/04/29 12:22:48;;;;;;;6.15;5.03;;;21.20;99.90;;;;;;5047662;28;20029;-49
2022/04/29 12:25:34;;;;;;;6.15;5.00;;;21.40;99.90;;;;;;5030355;28;20115;-43
2022/04/29 12:28:06;;;;;;;9.32;5.47;;;21.20;99.90;;;;;;5044181;28;20100;-49
2022/04/29 12:36:13;;;;;;;8.43;7.50;;;21.70;99.90;;;;;;5045527;28;20036;-46
2022/04/29 12:38:45;;;;;;;8.00;5.95;;;21.70;99.90;;;;;;5049619;28;20028;-42
2022/04/29 12:41:27;;;;;;;11.07;7.28;;;21.50;99.90;;;;;;5051875;28;20199;-44
2022/04/29 12:43:53;;;;;;;11.18;6.53;;;21.20;99.90;;;;;;5053602;28;20103;-48
2022/04/29 12:46:21;;;;;;;10.93;7.53;;;21.20;99.90;;;;;;5053171;28;20476;-49
2022/04/29 12:48:51;;;;;;;14.73;7.88;;;20.90;99.90;;;;;;5052835;28;20031;-48
2022/04/29 12:51:24;;;;;;;10.32;6.93;;;20.90;99.90;;;;;;5062577;28;20025;-44
2022/04/29 12:53:51;;;;;;;8.15;5.30;;;20.80;99.90;;;;;;5055781;28;20052;-47
2022/04/29 12:56:31;;;;;;;7.93;6.32;;;20.70;99.90;;;;;;5052259;28;20106;-44
2022/04/29 12:58:58;;;;;;;7.93;6.30;;;20.80;99.90;;;;;;5064046;28;20556;-46
2022/04/29 13:01:24;;;;;;;8.18;6.00;;;20.70;99.90;;;;;;5055002;28;20024;-45
2022/04/29 13:03:55;;;;;;;7.97;6.22;;;20.90;99.90;;;;;;5055263;28;20036;-46
2022/04/29 13:06:24;;;;;;;6.90;5.85;;;21.30;99.90;;;;;;5055777;28;20071;-49
2022/04/29 13:08:57;;;;;;;7.47;5.63;;;21.20;99.90;;;;;;5051650;28;20036;-43
2022/04/29 13:11:23;;;;;;;7.50;5.70;;;21.60;99.90;;;;;;5057151;28;20530;-51
2022/04/29 13:13:51;;;;;;;6.03;4.95;;;21.80;99.90;;;;;;5063266;28;20028;-48
2022/04/29 13:16:18;;;;;;;7.32;4.90;;;22.00;99.80;;;;;;5063436;28;20033;-45
2022/04/29 13:18:44;;;;;;;8.50;5.10;;;22.10;99.30;;;;;;5066690;28;20526;-49
2022/04/29 13:21:11;;;;;;;7.53;4.78;;;22.40;99.30;;;;;;5064737;28;20365;-47
2022/04/29 13:23:39;;;;;;;6.35;4.32;;;22.50;98.90;;;;;;5063262;28;20117;-50
2022/04/29 13:26:05;;;;;;;6.05;5.05;;;22.60;98.70;;;;;;5056463;28;20029;-47
2022/04/29 13:28:36;;;;;;;9.30;5.03;;;22.50;98.70;;;;;;5038943;28;20026;-49
2022/04/29 13:31:03;;;;;;;13.45;5.10;;;22.40;98.70;;;;;;5057308;28;20538;-45
2022/04/29 13:33:29;;;;;;;5.03;4.05;;;22.30;98.00;;;;;;5057240;28;20056;-48
2022/04/29 13:35:56;;;;;;;5.55;4.70;;;22.30;98.00;;;;;;5034153;28;20044;-51
2022/04/29 13:38:23;;;;;;;7.60;4.80;;;22.20;97.80;;;;;;5061137;28;20028;-47
2022/04/29 13:40:52;;;;;;;6.55;5.38;;;22.30;98.20;;;;;;5054458;28;20060;-46
2022/04/29 13:43:20;;;;;;;6.28;5.35;;;22.30;98.60;;;;;;5060714;28;20040;-45
2022/04/29 13:45:46;;;;;;;7.95;5.68;;;22.10;98.30;;;;;;5059470;28;20079;-50